sensor_id;sensor_type;location;lat;lon;timestamp;temperature;humidity
62862;DHT22;48953;53.110;5.592;2022-11-24T10:16:20;9.20;99.90
62862;DHT22;48953;53.110;5.592;2022-11-24T10:21:38;9.00;99.90
62862;DHT22;48953;53.110;5.592;2022-11-24T10:27:16;8.90;99.90
62862;DHT22;48953;53.110;5.592;2022-11-24T10:29:44;9.00;99.90
62862;DHT22;48953;53.110;5.592;2022-11-24T10:32:23;9.00;99.90
62862;DHT22;48953;53.110;5.592;2022-11-24T10:34:49;9.00;99.90
62862;DHT22;48953;53.110;5.592;2022-11-24T10:37:35;8.90;99.90
62862;DHT22;48953;53.110;5.592;2022-11-24T10:42:36;8.90;99.90
62862;DHT22;48953;53.110;5.592;2022-11-24T10:45:10;8.90;99.90
62862;DHT22;48953;53.110;5.592;2022-11-24T10:47:36;8.90;99.90
62862;DHT22;48953;53.110;5.592;2022-11-24T10:50:32;9.00;99.90
62862;DHT22;48953;53.110;5.592;2022-11-24T10:53:01;9.00;99.90
62862;DHT22;48953;53.110;5.592;2022-11-24T10:58:32;9.10;99.90
62862;DHT22;48953;53.110;5.592;2022-11-24T11:03:52;9.10;99.90
62862;DHT22;48953;53.110;5.592;2022-11-24T11:06:21;9.10;99.90
62862;DHT22;48953;53.110;5.592;2022-11-24T11:08:46;9.20;99.90
62862;DHT22;48953;53.110;5.592;2022-11-24T11:11:28;9.20;99.90
62862;DHT22;48953;53.110;5.592;2022-11-24T11:13:56;9.20;99.90
62862;DHT22;48953;53.110;5.592;2022-11-24T11:16:43;9.30;99.90
62862;DHT22;48953;53.110;5.592;2022-11-24T11:19:31;9.30;99.90
62862;DHT22;48953;53.110;5.592;2022-11-24T11:22:00;9.30;99.90
62862;DHT22;48953;53.110;5.592;2022-11-24T11:24:26;9.30;99.90
62862;DHT22;48953;53.110;5.592;2022-11-24T11:27:07;9.30;99.90
62862;DHT22;48953;53.110;5.592;2022-11-24T11:29:40;9.30;99.90
62862;DHT22;48953;53.110;5.592;2022-11-24T11:32:26;9.30;99.90
62862;DHT22;48953;53.110;5.592;2022-11-24T11:34:56;9.30;99.90
62862;DHT22;48953;53.110;5.592;2022-11-24T11:37:26;9.30;99.90
62862;DHT22;48953;53.110;5.592;2022-11-24T11:39:54;9.30;99.90
62862;DHT22;48953;53.110;5.592;2022-11-24T11:42:40;9.30;99.90
62862;DHT22;48953;53.110;5.592;2022-11-24T11:45:23;9.30;99.90
62862;DHT22;48953;53.110;5.592;2022-11-24T11:50:52;9.40;99.90
62862;DHT22;48953;53.110;5.592;2022-11-24T12:04:41;9.70;99.90
62862;DHT22;48953;53.110;5.592;2022-11-24T12:12:36;9.90;99.90
62862;DHT22;48953;53.110;5.592;2022-11-24T12:17:51;9.90;99.90
62862;DHT22;48953;53.110;5.592;2022-11-24T12:26:08;9.90;99.90
62862;DHT22;48953;53.110;5.592;2022-11-24T12:28:50;10.00;99.90
62862;DHT22;48953;53.110;5.592;2022-11-24T12:34:14;10.00;99.90
62862;DHT22;48953;53.110;5.592;2022-11-24T12:37:17;10.10;99.90
62862;DHT22;48953;53.110;5.592;2022-11-24T12:40:02;10.10;99.90
62862;DHT22;48953;53.110;5.592;2022-11-24T12:50:18;10.10;99.90
62862;DHT22;48953;53.110;5.592;2022-11-24T12:52:51;10.20;99.90
62862;DHT22;48953;53.110;5.592;2022-11-24T12:55:20;10.10;99.90
62862;DHT22;48953;53.110;5.592;2022-11-24T12:57:54;10.10;99.90
62862;DHT22;48953;53.110;5.592;2022-11-24T13:00:28;10.00;99.90
62862;DHT22;48953;53.110;5.592;2022-11-24T13:03:29;9.90;99.90
62862;DHT22;48953;53.110;5.592;2022-11-24T13:06:06;9.80;99.90
62862;DHT22;48953;53.110;5.592;2022-11-24T13:08:36;10.00;99.90
62862;DHT22;48953;53.110;5.592;2022-11-24T13:14:21;9.80;99.90
62862;DHT22;48953;53.110;5.592;2022-11-24T13:16:52;9.80;99.90
62862;DHT22;48953;53.110;5.592;2022-11-24T13:19:21;9.80;99.90
62862;DHT22;48953;53.110;5.592;2022-11-24T13:21:55;9.70;99.90
62862;DHT22;48953;53.110;5.592;2022-11-24T13:24:26;9.60;99.90
62862;DHT22;48953;53.110;5.592;2022-11-24T13:39:51;9.20;99.90
62862;DHT22;48953;53.110;5.592;2022-11-24T13:42:18;9.10;99.90
62862;DHT22;48953;53.110;5.592;2022-11-24T13:44:47;9.10;99.90
62862;DHT22;48953;53.110;5.592;2022-11-24T13:47:34;9.10;99.90
62862;DHT22;48953;53.110;5.592;2022-11-24T13:50:02;9.70;99.90
62862;DHT22;48953;53.110;5.592;2022-11-24T13:55:19;10.20;99.90
62862;DHT22;48953;53.110;5.592;2022-11-24T13:57:57;9.90;99.90
62862;DHT22;48953;53.110;5.592;2022-11-24T14:03:02;9.50;99.90
62862;DHT22;48953;53.110;5.592;2022-11-24T14:05:34;9.30;99.90
62862;DHT22;48953;53.110;5.592;2022-11-24T14:08:01;9.30;99.90
62862;DHT22;48953;53.110;5.592;2022-11-24T14:10:39;9.20;99.90
62862;DHT22;48953;53.110;5.592;2022-11-24T14:13:35;9.10;99.90
62862;DHT22;48953;53.110;5.592;2022-11-24T14:16:02;9.00;99.90
62862;DHT22;48953;53.110;5.592;2022-11-24T14:18:28;9.00;99.90
62862;DHT22;48953;53.110;5.592;2022-11-24T14:20:59;9.00;99.90
62862;DHT22;48953;53.110;5.592;2022-11-24T14:23:26;8.90;99.90
62862;DHT22;48953;53.110;5.592;2022-11-24T14:25:52;9.00;99.90
62862;DHT22;48953;53.110;5.592;2022-11-24T14:28:25;8.70;99.90
62862;DHT22;48953;53.110;5.592;2022-11-24T14:31:08;8.60;99.90
62862;DHT22;48953;53.110;5.592;2022-11-24T14:33:35;8.60;99.90
62862;DHT22;48953;53.110;5.592;2022-11-24T14:36:01;8.50;99.90
62862;DHT22;48953;53.110;5.592;2022-11-24T14:38:27;8.30;99.90
62862;DHT22;48953;53.110;5.592;2022-11-24T14:40:53;8.40;99.90
62862;DHT22;48953;53.110;5.592;2022-11-24T14:43:28;8.30;99.90
62862;DHT22;48953;53.110;5.592;2022-11-24T14:45:56;8.30;99.90
62862;DHT22;48953;53.110;5.592;2022-11-24T14:48:26;8.20;99.90
62862;DHT22;48953;53.110;5.592;2022-11-24T14:51:03;8.20;99.90
62862;DHT22;48953;53.110;5.592;2022-11-24T14:53:29;8.20;99.90
62862;DHT22;48953;53.110;5.592;2022-11-24T14:58:50;8.00;99.90
62862;DHT22;48953;53.110;5.592;2022-11-24T15:01:27;7.90;99.90
62862;DHT22;48953;53.110;5.592;2022-11-24T15:04:23;7.80;99.90
62862;DHT22;48953;53.110;5.592;2022-11-24T15:07:25;7.70;99.90
62862;DHT22;48953;53.110;5.592;2022-11-24T15:09:52;7.70;99.90
62862;DHT22;48953;53.110;5.592;2022-11-24T15:12:40;7.70;99.90
62862;DHT22;48953;53.110;5.592;2022-11-24T15:15:17;7.60;99.90
62862;DHT22;48953;53.110;5.592;2022-11-24T15:17:56;7.50;99.90
62862;DHT22;48953;53.110;5.592;2022-11-24T15:20:29;7.40;99.90
62862;DHT22;48953;53.110;5.592;2022-11-24T15:25:51;7.20;99.90
62862;DHT22;48953;53.110;5.592;2022-11-24T15:28:17;7.20;99.90
62862;DHT22;48953;53.110;5.592;2022-11-24T15:30:47;7.20;99.90
62862;DHT22;48953;53.110;5.592;2022-11-24T15:33:19;7.10;99.90
62862;DHT22;48953;53.110;5.592;2022-11-24T15:35:45;7.10;99.90
62862;DHT22;48953;53.110;5.592;2022-11-24T15:38:11;7.00;99.90
62862;DHT22;48953;53.110;5.592;2022-11-24T15:40:38;7.10;99.90
62862;DHT22;48953;53.110;5.592;2022-11-24T15:43:30;6.90;99.90
62862;DHT22;48953;53.110;5.592;2022-11-24T15:45:57;6.90;99.90
62862;DHT22;48953;53.110;5.592;2022-11-24T15:48:23;6.90;99.90
62862;DHT22;48953;53.110;5.592;2022-11-24T15:50:49;6.80;99.90
62862;DHT22;48953;53.110;5.592;2022-11-24T15:55:46;6.70;99.90
62862;DHT22;48953;53.110;5.592;2022-11-24T15:58:13;6.70;99.90
62862;DHT22;48953;53.110;5.592;2022-11-24T16:00:39;6.70;99.90
62862;DHT22;48953;53.110;5.592;2022-11-24T16:03:05;6.60;99.90
62862;DHT22;48953;53.110;5.592;2022-11-24T16:05:31;6.50;99.90
62862;DHT22;48953;53.110;5.592;2022-11-24T16:07:56;6.50;99.90
62862;DHT22;48953;53.110;5.592;2022-11-24T16:10:28;6.50;99.90
62862;DHT22;48953;53.110;5.592;2022-11-24T16:12:54;6.40;99.90
62862;DHT22;48953;53.110;5.592;2022-11-24T16:15:20;6.40;99.90
62862;DHT22;48953;53.110;5.592;2022-11-24T16:17:46;6.30;99.90
62862;DHT22;48953;53.110;5.592;2022-11-24T16:20:12;6.30;99.90
62862;DHT22;48953;53.110;5.592;2022-11-24T16:22:38;6.30;99.90
62862;DHT22;48953;53.110;5.592;2022-11-24T16:25:04;6.20;99.90
62862;DHT22;48953;53.110;5.592;2022-11-24T16:27:30;6.20;99.90
62862;DHT22;48953;53.110;5.592;2022-11-24T16:29:56;6.20;99.90
62862;DHT22;48953;53.110;5.592;2022-11-24T16:32:22;6.10;99.90
62862;DHT22;48953;53.110;5.592;2022-11-24T16:34:47;6.10;99.90
62862;DHT22;48953;53.110;5.592;2022-11-24T16:37:13;6.20;99.90
62862;DHT22;48953;53.110;5.592;2022-11-24T16:39:39;6.20;99.90
62862;DHT22;48953;53.110;5.592;2022-11-24T16:42:04;6.30;99.90
62862;DHT22;48953;53.110;5.592;2022-11-24T16:44:30;6.00;99.90
62862;DHT22;48953;53.110;5.592;2022-11-24T16:46:56;6.10;99.90
62862;DHT22;48953;53.110;5.592;2022-11-24T16:49:28;6.20;99.90
62862;DHT22;48953;53.110;5.592;2022-11-24T16:51:53;6.10;99.90
62862;DHT22;48953;53.110;5.592;2022-11-24T16:54:19;6.10;1.00
62862;DHT22;48953;53.110;5.592;2022-11-24T16:56:45;6.10;1.00
62862;DHT22;48953;53.110;5.592;2022-11-24T16:59:10;6.10;99.90
62862;DHT22;48953;53.110;5.592;2022-11-24T17:01:36;6.10;1.00
62862;DHT22;48953;53.110;5.592;2022-11-24T17:04:04;6.00;1.00
62862;DHT22;48953;53.110;5.592;2022-11-24T17:06:31;6.00;1.00
62862;DHT22;48953;53.110;5.592;2022-11-24T17:08:58;6.00;1.00
62862;DHT22;48953;53.110;5.592;2022-11-24T17:11:26;6.20;1.00
62862;DHT22;48953;53.110;5.592;2022-11-24T17:13:52;6.10;1.00
62862;DHT22;48953;53.110;5.592;2022-11-24T17:16:20;6.10;1.00
62862;DHT22;48953;53.110;5.592;2022-11-24T17:18:47;6.00;1.00
62862;DHT22;48953;53.110;5.592;2022-11-24T17:21:20;6.00;1.00
62862;DHT22;48953;53.110;5.592;2022-11-24T17:23:46;6.00;1.00
62862;DHT22;48953;53.110;5.592;2022-11-24T17:26:14;6.00;1.00
62862;DHT22;48953;53.110;5.592;2022-11-24T17:28:40;6.00;1.00
62862;DHT22;48953;53.110;5.592;2022-11-24T17:31:24;5.90;1.00
62862;DHT22;48953;53.110;5.592;2022-11-24T17:33:51;6.00;1.00
62862;DHT22;48953;53.110;5.592;2022-11-24T17:36:17;6.00;1.00
62862;DHT22;48953;53.110;5.592;2022-11-24T17:38:43;5.80;1.00
62862;DHT22;48953;53.110;5.592;2022-11-24T17:41:09;5.90;1.00
62862;DHT22;48953;53.110;5.592;2022-11-24T17:43:35;6.00;1.00
62862;DHT22;48953;53.110;5.592;2022-11-24T17:46:02;5.90;1.00
62862;DHT22;48953;53.110;5.592;2022-11-24T17:48:29;5.90;1.00
62862;DHT22;48953;53.110;5.592;2022-11-24T17:51:09;5.90;1.00
62862;DHT22;48953;53.110;5.592;2022-11-24T17:53:38;5.80;1.00
62862;DHT22;48953;53.110;5.592;2022-11-24T17:56:05;5.80;1.00
62862;DHT22;48953;53.110;5.592;2022-11-24T17:58:32;5.70;1.00
62862;DHT22;48953;53.110;5.592;2022-11-24T18:00:58;5.80;1.00
62862;DHT22;48953;53.110;5.592;2022-11-24T18:03:25;5.70;1.00
62862;DHT22;48953;53.110;5.592;2022-11-24T18:05:53;5.80;1.00
62862;DHT22;48953;53.110;5.592;2022-11-24T18:08:19;5.80;1.00
62862;DHT22;48953;53.110;5.592;2022-11-24T18:10:45;5.80;1.00
62862;DHT22;48953;53.110;5.592;2022-11-24T18:13:10;5.80;1.00
62862;DHT22;48953;53.110;5.592;2022-11-24T18:15:36;5.80;1.00
62862;DHT22;48953;53.110;5.592;2022-11-24T18:18:02;5.80;1.00
62862;DHT22;48953;53.110;5.592;2022-11-24T18:20:28;5.80;1.00
62862;DHT22;48953;53.110;5.592;2022-11-24T18:22:55;5.90;1.00
62862;DHT22;48953;53.110;5.592;2022-11-24T18:25:21;5.80;1.00
62862;DHT22;48953;53.110;5.592;2022-11-24T18:27:47;5.80;1.00
62862;DHT22;48953;53.110;5.592;2022-11-24T18:30:13;5.90;1.00
62862;DHT22;48953;53.110;5.592;2022-11-24T18:32:38;5.90;1.00
62862;DHT22;48953;53.110;5.592;2022-11-24T18:35:05;5.80;1.00
62862;DHT22;48953;53.110;5.592;2022-11-24T18:37:31;5.80;1.00
62862;DHT22;48953;53.110;5.592;2022-11-24T18:39:58;5.80;1.00
62862;DHT22;48953;53.110;5.592;2022-11-24T18:42:25;5.80;1.00
62862;DHT22;48953;53.110;5.592;2022-11-24T18:44:51;5.80;1.00
62862;DHT22;48953;53.110;5.592;2022-11-24T18:47:16;5.80;1.00
62862;DHT22;48953;53.110;5.592;2022-11-24T18:49:42;6.00;1.00
62862;DHT22;48953;53.110;5.592;2022-11-24T18:52:07;5.80;1.00
62862;DHT22;48953;53.110;5.592;2022-11-24T18:54:33;5.90;1.00
62862;DHT22;48953;53.110;5.592;2022-11-24T18:56:59;6.00;1.00
62862;DHT22;48953;53.110;5.592;2022-11-24T18:59:24;6.00;1.00
62862;DHT22;48953;53.110;5.592;2022-11-24T19:01:50;6.00;1.00
62862;DHT22;48953;53.110;5.592;2022-11-24T19:04:15;6.00;1.00
62862;DHT22;48953;53.110;5.592;2022-11-24T19:06:41;5.90;1.00
62862;DHT22;48953;53.110;5.592;2022-11-24T19:09:17;6.00;1.00
62862;DHT22;48953;53.110;5.592;2022-11-24T19:11:45;6.10;1.00
62862;DHT22;48953;53.110;5.592;2022-11-24T19:14:13;6.20;1.00
62862;DHT22;48953;53.110;5.592;2022-11-24T19:16:40;6.20;1.00
62862;DHT22;48953;53.110;5.592;2022-11-24T19:19:06;6.20;1.00
62862;DHT22;48953;53.110;5.592;2022-11-24T19:21:34;6.40;1.00
62862;DHT22;48953;53.110;5.592;2022-11-24T19:24:01;6.40;1.00
62862;DHT22;48953;53.110;5.592;2022-11-24T19:26:27;6.40;1.00
62862;DHT22;48953;53.110;5.592;2022-11-24T19:28:53;6.40;1.00
62862;DHT22;48953;53.110;5.592;2022-11-24T19:31:18;6.40;1.00
62862;DHT22;48953;53.110;5.592;2022-11-24T19:33:44;6.50;1.00
62862;DHT22;48953;53.110;5.592;2022-11-24T19:36:12;6.50;1.00
62862;DHT22;48953;53.110;5.592;2022-11-24T19:38:39;6.60;1.00
62862;DHT22;48953;53.110;5.592;2022-11-24T19:41:06;6.60;1.00
62862;DHT22;48953;53.110;5.592;2022-11-24T19:43:32;6.50;1.00
62862;DHT22;48953;53.110;5.592;2022-11-24T19:46:03;6.50;99.90
62862;DHT22;48953;53.110;5.592;2022-11-24T19:48:34;6.40;99.90
62862;DHT22;48953;53.110;5.592;2022-11-24T19:51:05;6.40;99.90
62862;DHT22;48953;53.110;5.592;2022-11-24T19:53:31;6.40;99.90
62862;DHT22;48953;53.110;5.592;2022-11-24T19:58:30;6.30;99.90
62862;DHT22;48953;53.110;5.592;2022-11-24T20:01:03;6.30;1.00
62862;DHT22;48953;53.110;5.592;2022-11-24T20:03:29;6.40;99.90
62862;DHT22;48953;53.110;5.592;2022-11-24T20:05:55;6.30;99.90
62862;DHT22;48953;53.110;5.592;2022-11-24T20:08:21;6.20;99.90
62862;DHT22;48953;53.110;5.592;2022-11-24T20:10:46;6.20;1.00
62862;DHT22;48953;53.110;5.592;2022-11-24T20:13:12;6.30;99.90
62862;DHT22;48953;53.110;5.592;2022-11-24T20:15:38;6.20;1.00
62862;DHT22;48953;53.110;5.592;2022-11-24T20:18:03;6.40;99.90
62862;DHT22;48953;53.110;5.592;2022-11-24T20:20:29;6.40;99.90
62862;DHT22;48953;53.110;5.592;2022-11-24T20:22:56;6.40;99.90
62862;DHT22;48953;53.110;5.592;2022-11-24T20:25:21;6.40;99.90
62862;DHT22;48953;53.110;5.592;2022-11-24T20:27:47;6.30;99.90
62862;DHT22;48953;53.110;5.592;2022-11-24T20:30:12;6.40;99.90
62862;DHT22;48953;53.110;5.592;2022-11-24T20:32:38;6.50;99.90
62862;DHT22;48953;53.110;5.592;2022-11-24T20:35:03;6.40;99.90
62862;DHT22;48953;53.110;5.592;2022-11-24T20:37:29;6.40;99.90
62862;DHT22;48953;53.110;5.592;2022-11-24T20:39:55;6.40;99.90
62862;DHT22;48953;53.110;5.592;2022-11-24T20:42:23;6.40;99.90
62862;DHT22;48953;53.110;5.592;2022-11-24T20:44:48;6.40;99.90
62862;DHT22;48953;53.110;5.592;2022-11-24T20:47:14;6.40;99.90
62862;DHT22;48953;53.110;5.592;2022-11-24T20:49:39;6.50;99.90
62862;DHT22;48953;53.110;5.592;2022-11-24T20:52:05;6.40;99.90
62862;DHT22;48953;53.110;5.592;2022-11-24T20:54:30;6.40;99.90
62862;DHT22;48953;53.110;5.592;2022-11-24T20:56:56;6.50;99.90
62862;DHT22;48953;53.110;5.592;2022-11-24T20:59:23;6.50;99.90
62862;DHT22;48953;53.110;5.592;2022-11-24T21:01:50;6.60;99.90
62862;DHT22;48953;53.110;5.592;2022-11-24T21:04:22;6.60;99.90
62862;DHT22;48953;53.110;5.592;2022-11-24T21:06:48;6.60;99.90
62862;DHT22;48953;53.110;5.592;2022-11-24T21:09:14;6.70;99.90
62862;DHT22;48953;53.110;5.592;2022-11-24T21:11:40;6.70;99.90
62862;DHT22;48953;53.110;5.592;2022-11-24T21:14:06;6.70;99.90
62862;DHT22;48953;53.110;5.592;2022-11-24T21:16:34;6.70;99.90
62862;DHT22;48953;53.110;5.592;2022-11-24T21:19:02;6.70;99.90
62862;DHT22;48953;53.110;5.592;2022-11-24T21:21:30;6.90;99.90
62862;DHT22;48953;53.110;5.592;2022-11-24T21:23:59;6.80;99.90
62862;DHT22;48953;53.110;5.592;2022-11-24T21:26:24;6.90;99.90
62862;DHT22;48953;53.110;5.592;2022-11-24T21:28:50;6.90;99.90
62862;DHT22;48953;53.110;5.592;2022-11-24T21:31:20;7.00;99.90
62862;DHT22;48953;53.110;5.592;2022-11-24T21:33:50;7.10;99.90
62862;DHT22;48953;53.110;5.592;2022-11-24T21:36:17;7.20;99.90
62862;DHT22;48953;53.110;5.592;2022-11-24T21:38:47;7.30;99.90
62862;DHT22;48953;53.110;5.592;2022-11-24T21:41:13;7.30;99.90
62862;DHT22;48953;53.110;5.592;2022-11-24T21:43:39;7.30;99.90
62862;DHT22;48953;53.110;5.592;2022-11-24T21:46:06;7.30;99.90
62862;DHT22;48953;53.110;5.592;2022-11-24T21:48:34;7.40;99.90
62862;DHT22;48953;53.110;5.592;2022-11-24T21:51:02;7.50;99.90
62862;DHT22;48953;53.110;5.592;2022-11-24T21:53:30;7.50;99.90
62862;DHT22;48953;53.110;5.592;2022-11-24T21:55:58;7.60;99.90
62862;DHT22;48953;53.110;5.592;2022-11-24T21:58:25;7.60;99.90
62862;DHT22;48953;53.110;5.592;2022-11-24T22:00:51;7.50;99.90
62862;DHT22;48953;53.110;5.592;2022-11-24T22:03:17;7.60;99.90
62862;DHT22;48953;53.110;5.592;2022-11-24T22:05:54;7.60;99.90
62862;DHT22;48953;53.110;5.592;2022-11-24T22:08:20;7.60;99.90
62862;DHT22;48953;53.110;5.592;2022-11-24T22:10:46;7.60;99.90
62862;DHT22;48953;53.110;5.592;2022-11-24T22:13:11;7.50;99.90
62862;DHT22;48953;53.110;5.592;2022-11-24T22:15:37;7.50;99.90
62862;DHT22;48953;53.110;5.592;2022-11-24T22:18:03;7.60;99.90
62862;DHT22;48953;53.110;5.592;2022-11-24T22:20:28;7.60;99.90
62862;DHT22;48953;53.110;5.592;2022-11-24T22:22:54;7.60;99.90
62862;DHT22;48953;53.110;5.592;2022-11-24T22:25:19;7.60;99.90
62862;DHT22;48953;53.110;5.592;2022-11-24T22:27:45;7.60;99.90
62862;DHT22;48953;53.110;5.592;2022-11-24T22:32:36;7.70;99.90
62862;DHT22;48953;53.110;5.592;2022-11-24T22:35:03;7.70;99.90
62862;DHT22;48953;53.110;5.592;2022-11-24T22:37:28;7.70;99.90
62862;DHT22;48953;53.110;5.592;2022-11-24T22:39:54;7.70;99.90
62862;DHT22;48953;53.110;5.592;2022-11-24T22:42:19;7.70;99.90
62862;DHT22;48953;53.110;5.592;2022-11-24T22:44:45;7.70;99.90
62862;DHT22;48953;53.110;5.592;2022-11-24T22:47:11;7.70;99.90
62862;DHT22;48953;53.110;5.592;2022-11-24T22:49:36;7.70;99.90
62862;DHT22;48953;53.110;5.592;2022-11-24T22:52:02;7.70;99.90
62862;DHT22;48953;53.110;5.592;2022-11-24T22:54:27;7.70;99.90
62862;DHT22;48953;53.110;5.592;2022-11-24T22:56:53;7.80;99.90
62862;DHT22;48953;53.110;5.592;2022-11-24T22:59:18;7.70;99.90
62862;DHT22;48953;53.110;5.592;2022-11-24T23:01:44;7.90;99.90
62862;DHT22;48953;53.110;5.592;2022-11-24T23:04:09;7.80;99.90
62862;DHT22;48953;53.110;5.592;2022-11-24T23:06:35;7.80;99.90
62862;DHT22;48953;53.110;5.592;2022-11-24T23:09:02;7.70;99.90
62862;DHT22;48953;53.110;5.592;2022-11-24T23:11:30;7.80;99.90
62862;DHT22;48953;53.110;5.592;2022-11-24T23:13:57;7.80;99.90
62862;DHT22;48953;53.110;5.592;2022-11-24T23:16:25;7.80;99.90
62862;DHT22;48953;53.110;5.592;2022-11-24T23:18:51;7.80;99.90
62862;DHT22;48953;53.110;5.592;2022-11-24T23:21:21;7.80;99.90
62862;DHT22;48953;53.110;5.592;2022-11-24T23:23:47;7.80;99.90
62862;DHT22;48953;53.110;5.592;2022-11-24T23:26:16;7.90;99.90
62862;DHT22;48953;53.110;5.592;2022-11-24T23:28:42;7.90;99.90
62862;DHT22;48953;53.110;5.592;2022-11-24T23:31:10;7.80;99.90
62862;DHT22;48953;53.110;5.592;2022-11-24T23:33:36;7.90;99.90
62862;DHT22;48953;53.110;5.592;2022-11-24T23:36:06;7.90;99.90
62862;DHT22;48953;53.110;5.592;2022-11-24T23:38:32;7.90;99.90
62862;DHT22;48953;53.110;5.592;2022-11-24T23:40:59;7.90;99.90
62862;DHT22;48953;53.110;5.592;2022-11-24T23:43:26;7.90;99.90
62862;DHT22;48953;53.110;5.592;2022-11-24T23:45:52;7.90;99.90
62862;DHT22;48953;53.110;5.592;2022-11-24T23:48:17;7.90;99.90
62862;DHT22;48953;53.110;5.592;2022-11-24T23:50:43;7.90;99.90
62862;DHT22;48953;53.110;5.592;2022-11-24T23:53:09;7.90;99.90
62862;DHT22;48953;53.110;5.592;2022-11-24T23:55:35;7.90;99.90
62862;DHT22;48953;53.110;5.592;2022-11-24T23:58:00;8.00;99.90
